createdAt,value
2018-05-17T00:00:08.879Z,46.67
2018-05-17T00:01:14.265Z,45.10
2018-05-17T00:02:19.847Z,38.30
2018-05-17T00:03:25.195Z,39.78
2018-05-17T00:04:30.659Z,39.22
2018-05-17T00:05:36.359Z,59.05
2018-05-17T00:06:41.773Z,38.63
2018-05-17T00:07:47.271Z,40.73
2018-05-17T00:08:52.709Z,36.40
2018-05-17T00:09:58.065Z,39.70
2018-05-17T00:11:03.606Z,38.47
2018-05-17T00:12:09.355Z,41.53
2018-05-17T00:13:14.870Z,40.15
2018-05-17T00:14:20.721Z,43.60
2018-05-17T00:15:26.102Z,43.22
2018-05-17T00:16:31.799Z,43.45
2018-05-17T00:17:37.199Z,44.15
2018-05-17T00:18:42.569Z,47.80
2018-05-17T00:19:47.938Z,40.47
2018-05-17T00:20:53.332Z,35.00
2018-05-17T00:21:59.599Z,37.55
2018-05-17T00:23:05.291Z,34.00
2018-05-17T00:24:10.685Z,35.50
2018-05-17T00:25:16.096Z,36.75
2018-05-17T00:26:21.459Z,32.40
2018-05-17T00:27:26.828Z,43.07
2018-05-17T00:28:32.205Z,45.22
2018-05-17T00:29:37.658Z,42.30
2018-05-17T00:30:43.643Z,40.08
2018-05-17T00:31:49.085Z,33.53
2018-05-17T00:32:54.459Z,37.97
2018-05-17T00:34:01.091Z,32.70
2018-05-17T00:35:06.454Z,26.15
2018-05-17T00:36:12.116Z,36.40
2018-05-17T00:37:17.696Z,42.05
2018-05-17T00:38:23.393Z,28.10
2018-05-17T00:39:28.778Z,33.47
2018-05-17T00:40:34.429Z,37.60
2018-05-17T00:41:40.382Z,35.17
2018-05-17T00:42:45.748Z,45.50
2018-05-17T00:43:51.071Z,42.97
2018-05-17T00:44:56.386Z,30.77
2018-05-17T00:46:01.682Z,34.92
2018-05-17T00:47:07.070Z,39.17
2018-05-17T00:48:12.409Z,32.90
2018-05-17T00:49:17.809Z,40.10
2018-05-17T00:50:23.184Z,37.30
2018-05-17T00:51:28.510Z,32.92
2018-05-17T00:52:34.189Z,39.22
2018-05-17T00:53:39.947Z,31.65
2018-05-17T00:54:45.280Z,38.28
2018-05-17T00:55:50.565Z,45.55
2018-05-17T00:56:55.943Z,46.00
2018-05-17T00:58:01.312Z,40.90
2018-05-17T00:59:06.787Z,48.65
2018-05-17T01:00:12.137Z,40.85
2018-05-17T01:01:18.209Z,41.70
2018-05-17T01:02:23.789Z,56.00
2018-05-17T01:03:29.434Z,38.22
2018-05-17T01:04:34.876Z,43.80
2018-05-17T01:05:40.300Z,39.53
2018-05-17T01:06:45.849Z,45.20
2018-05-17T01:07:51.365Z,53.63
2018-05-17T01:08:57.310Z,44.55
2018-05-17T01:10:02.783Z,37.43
2018-05-17T01:11:08.609Z,49.60
2018-05-17T01:12:14.142Z,36.93
2018-05-17T01:13:20.417Z,36.85
2018-05-17T01:14:26.105Z,46.85
2018-05-17T01:15:32.000Z,39.92
2018-05-17T01:16:37.352Z,56.65
2018-05-17T01:17:42.722Z,53.60
2018-05-17T01:18:48.720Z,35.22
2018-05-17T01:19:54.002Z,49.38
2018-05-17T01:20:59.683Z,43.83
2018-05-17T01:22:05.236Z,47.75
2018-05-17T01:23:10.620Z,43.63
2018-05-17T01:24:16.321Z,36.55
2018-05-17T01:25:21.616Z,35.35
2018-05-17T01:26:27.273Z,49.72
2018-05-17T01:27:32.748Z,32.35
2018-05-17T01:28:38.075Z,43.20
2018-05-17T01:29:43.378Z,30.25
2018-05-17T01:30:48.754Z,30.12
2018-05-17T01:31:54.645Z,32.05
2018-05-17T01:33:00.189Z,24.95
2018-05-17T01:34:05.760Z,36.50
2018-05-17T01:35:11.475Z,25.70
2018-05-17T01:36:16.980Z,44.90
2018-05-17T01:37:27.851Z,30.73
2018-05-17T01:38:33.565Z,31.12
2018-05-17T01:39:39.197Z,35.58
2018-05-17T01:40:44.585Z,31.92
2018-05-17T01:41:49.966Z,38.43
2018-05-17T01:42:55.529Z,26.77
2018-05-17T01:44:01.254Z,37.70
2018-05-17T01:45:07.070Z,34.55
2018-05-17T01:46:12.764Z,39.30
2018-05-17T01:47:18.146Z,32.47
2018-05-17T01:48:23.510Z,31.92
2018-05-17T01:49:28.966Z,28.98
2018-05-17T01:50:34.322Z,40.20
2018-05-17T01:51:41.568Z,38.25
2018-05-17T01:52:51.447Z,52.65
2018-05-17T01:53:59.647Z,34.95
2018-05-17T01:55:06.512Z,40.85
2018-05-17T01:56:20.858Z,49.80
2018-05-17T01:57:27.413Z,44.03
2018-05-17T01:58:32.897Z,42.33
2018-05-17T01:59:39.367Z,37.13
2018-05-17T02:00:45.448Z,36.08
2018-05-17T02:01:51.206Z,48.38
2018-05-17T02:02:57.047Z,30.50
2018-05-17T02:04:02.425Z,38.85
2018-05-17T02:05:08.011Z,41.13
2018-05-17T02:06:13.384Z,46.85
2018-05-17T02:07:18.772Z,32.10
2018-05-17T02:08:25.124Z,49.25
2018-05-17T02:09:31.454Z,38.30
2018-05-17T02:10:37.320Z,49.15
2018-05-17T02:11:43.501Z,42.03
2018-05-17T02:12:48.846Z,39.35
2018-05-17T02:13:54.200Z,42.67
2018-05-17T02:15:00.072Z,36.80
2018-05-17T02:16:05.445Z,38.55
2018-05-17T02:17:10.863Z,51.15
2018-05-17T02:18:16.644Z,36.28
2018-05-17T02:19:22.021Z,41.50
2018-05-17T02:20:27.426Z,35.65
2018-05-17T02:21:32.809Z,37.83
2018-05-17T02:22:38.165Z,31.00
2018-05-17T02:23:43.906Z,42.35
2018-05-17T02:24:49.441Z,42.90
2018-05-17T02:25:55.134Z,48.78
2018-05-17T02:27:00.776Z,32.65
2018-05-17T02:28:06.633Z,42.92
2018-05-17T02:29:12.845Z,39.07
2018-05-17T02:30:19.070Z,35.65
2018-05-17T02:31:24.753Z,54.70
2018-05-17T02:32:31.530Z,48.90
2018-05-17T02:33:37.188Z,41.78
2018-05-17T02:34:42.556Z,52.50
2018-05-17T02:35:48.017Z,40.40
2018-05-17T02:36:53.559Z,45.20
2018-05-17T02:37:58.933Z,52.72
2018-05-17T02:39:05.966Z,44.47
2018-05-17T02:40:11.673Z,36.90
2018-05-17T02:41:17.044Z,49.85
2018-05-17T02:42:22.452Z,41.65
2018-05-17T02:43:28.082Z,35.50
2018-05-17T02:44:34.065Z,39.30
2018-05-17T02:45:39.892Z,47.92
2018-05-17T02:46:45.266Z,38.35
2018-05-17T02:47:50.761Z,38.90
2018-05-17T02:48:56.133Z,46.90
2018-05-17T02:50:01.911Z,64.10
2018-05-17T02:51:07.861Z,43.03
2018-05-17T02:52:13.561Z,54.65
2018-05-17T02:53:19.276Z,44.80
2018-05-17T02:54:24.874Z,54.00
2018-05-17T02:55:30.319Z,49.70
2018-05-17T02:56:36.189Z,44.72
2018-05-17T02:57:41.859Z,43.87
2018-05-17T02:58:47.386Z,44.22
2018-05-17T02:59:52.983Z,48.00
2018-05-17T03:00:59.149Z,48.22
2018-05-17T03:02:04.536Z,39.30
2018-05-17T03:03:09.875Z,47.25
2018-05-17T03:04:15.291Z,50.77
2018-05-17T03:05:20.704Z,36.20
2018-05-17T03:06:26.094Z,44.10
2018-05-17T03:07:31.463Z,39.40
2018-05-17T03:08:36.849Z,35.30
2018-05-17T03:09:42.254Z,46.63
2018-05-17T03:10:47.773Z,46.05
2018-05-17T03:11:53.180Z,38.75
2018-05-17T03:12:58.553Z,53.00
2018-05-17T03:14:03.950Z,41.10
2018-05-17T03:15:09.363Z,40.00
2018-05-17T03:16:14.735Z,45.63
2018-05-17T03:17:20.129Z,38.50
2018-05-17T03:18:25.514Z,50.78
2018-05-17T03:19:31.151Z,47.33
2018-05-17T03:20:36.757Z,28.85
2018-05-17T03:21:42.113Z,51.75
2018-05-17T03:22:47.470Z,38.17
2018-05-17T03:23:52.839Z,37.28
2018-05-17T03:24:58.492Z,43.35
2018-05-17T03:26:04.056Z,47.00
2018-05-17T03:27:09.437Z,48.58
2018-05-17T03:28:14.804Z,45.83
2018-05-17T03:29:20.461Z,41.13
2018-05-17T03:30:26.122Z,36.35
2018-05-17T03:31:31.551Z,34.03
2018-05-17T03:32:36.906Z,47.45
2018-05-17T03:33:42.324Z,52.15
2018-05-17T03:34:47.700Z,48.10
2018-05-17T03:35:53.501Z,54.88
2018-05-17T03:36:59.214Z,44.28
2018-05-17T03:38:04.598Z,49.72
2018-05-17T03:39:09.976Z,53.15
2018-05-17T03:40:15.386Z,61.60
2018-05-17T03:41:20.765Z,55.20
2018-05-17T03:42:26.142Z,47.33
2018-05-17T03:43:31.511Z,67.82
2018-05-17T03:44:36.861Z,54.15
2018-05-17T03:45:42.986Z,44.13
2018-05-17T03:46:48.362Z,40.35
2018-05-17T03:47:53.715Z,57.10
2018-05-17T03:48:59.418Z,43.40
2018-05-17T03:50:04.758Z,51.67
2018-05-17T03:51:10.316Z,44.33
2018-05-17T03:52:15.692Z,39.75
2018-05-17T03:53:21.350Z,48.53
2018-05-17T03:54:27.039Z,42.60
2018-05-17T03:55:32.588Z,45.20
2018-05-17T03:56:37.961Z,45.15
2018-05-17T03:57:43.375Z,40.15
2018-05-17T03:58:49.082Z,48.40
2018-05-17T03:59:54.639Z,39.25
2018-05-17T04:01:04.345Z,36.50
2018-05-17T04:02:15.129Z,39.85
2018-05-17T04:03:25.768Z,37.95
2018-05-17T04:06:41.232Z,38.65
2018-05-17T04:07:46.833Z,37.60
2018-05-17T04:08:52.197Z,36.28
2018-05-17T04:09:57.886Z,37.27
2018-05-17T04:11:03.245Z,35.42
2018-05-17T04:12:08.601Z,35.95
2018-05-17T04:13:14.178Z,31.10
2018-05-17T04:14:20.573Z,37.83
2018-05-17T04:15:26.665Z,40.05
2018-05-17T04:16:32.021Z,44.72
2018-05-17T04:17:37.375Z,33.03
2018-05-17T04:18:42.766Z,35.13
2018-05-17T04:19:48.192Z,36.33
2018-05-17T04:20:54.176Z,36.92
2018-05-17T04:21:59.872Z,36.58
2018-05-17T04:23:05.223Z,34.22
2018-05-17T04:24:10.625Z,43.50
2018-05-17T04:25:16.190Z,40.75
2018-05-17T04:26:21.865Z,35.73
2018-05-17T04:27:27.217Z,40.70
2018-05-17T04:28:32.631Z,35.63
2018-05-17T04:29:38.788Z,35.37
2018-05-17T04:30:44.203Z,38.30
2018-05-17T04:31:49.618Z,33.83
2018-05-17T04:32:55.265Z,37.10
2018-05-17T04:34:00.676Z,34.55
2018-05-17T04:35:06.087Z,45.30
2018-05-17T04:36:11.590Z,36.38
2018-05-17T04:37:16.951Z,43.30
2018-05-17T04:38:22.646Z,35.25
2018-05-17T04:39:28.018Z,37.90
2018-05-17T04:40:33.522Z,44.15
2018-05-17T04:41:38.907Z,32.83
2018-05-17T04:42:44.306Z,25.90
2018-05-17T04:43:49.657Z,46.53
2018-05-17T04:44:55.025Z,37.22
2018-05-17T04:46:00.428Z,38.10
2018-05-17T04:47:05.916Z,49.15
2018-05-17T04:48:11.263Z,38.80
2018-05-17T04:49:16.623Z,40.90
2018-05-17T04:50:22.273Z,43.15
2018-05-17T04:51:27.640Z,35.13
2018-05-17T04:52:33.296Z,46.30
2018-05-17T04:53:38.686Z,48.17
2018-05-17T04:54:44.107Z,47.97
2018-05-17T04:55:49.437Z,57.47
2018-05-17T04:56:54.836Z,48.28
2018-05-17T04:58:00.291Z,44.85
2018-05-17T04:59:05.731Z,37.77
2018-05-17T05:00:11.203Z,51.80
2018-05-17T05:01:16.591Z,51.20
2018-05-17T05:03:34.144Z,38.03
2018-05-17T05:04:39.575Z,46.88
2018-05-17T05:05:44.953Z,44.38
2018-05-17T05:06:50.528Z,33.50
2018-05-17T05:07:56.679Z,38.90
2018-05-17T05:09:02.082Z,46.15
2018-05-17T05:10:12.463Z,42.83
2018-05-17T05:11:17.816Z,49.13
2018-05-17T05:12:23.172Z,62.63
2018-05-17T05:13:28.924Z,50.22
2018-05-17T05:14:34.321Z,52.13
2018-05-17T05:15:39.697Z,49.10
2018-05-17T05:16:45.099Z,49.45
2018-05-17T05:17:50.520Z,47.00
2018-05-17T05:18:55.890Z,63.05
2018-05-17T05:20:01.267Z,62.97
2018-05-17T05:21:06.764Z,53.00
2018-05-17T05:22:12.135Z,52.15
2018-05-17T05:23:17.523Z,58.57
2018-05-17T05:24:22.920Z,41.35
2018-05-17T05:25:28.307Z,47.40
2018-05-17T05:26:33.669Z,39.80
2018-05-17T05:27:39.146Z,45.53
2018-05-17T05:28:44.542Z,46.33
2018-05-17T05:29:49.899Z,50.15
2018-05-17T05:30:55.280Z,63.05
2018-05-17T05:32:00.815Z,66.13
2018-05-17T05:33:06.238Z,50.80
2018-05-17T05:34:11.586Z,55.08
2018-05-17T05:35:16.986Z,53.90
2018-05-17T05:36:22.357Z,83.85
2018-05-17T05:37:27.755Z,63.83
2018-05-17T05:38:33.188Z,69.35
2018-05-17T05:39:38.759Z,55.30
2018-05-17T05:40:44.161Z,72.30
2018-05-17T05:41:49.822Z,59.80
2018-05-17T05:42:55.304Z,52.28
2018-05-17T05:44:00.676Z,50.90
2018-05-17T05:45:06.252Z,56.28
2018-05-17T05:46:11.656Z,56.15
2018-05-17T05:47:17.038Z,76.53
2018-05-17T05:48:22.605Z,60.75
2018-05-17T05:49:28.437Z,62.17
2018-05-17T05:50:34.134Z,62.97
2018-05-17T05:51:39.552Z,62.88
2018-05-17T05:52:45.231Z,61.70
2018-05-17T05:53:50.640Z,62.95
2018-05-17T05:54:56.019Z,59.60
2018-05-17T05:56:01.411Z,56.85
2018-05-17T05:57:06.769Z,67.80
2018-05-17T05:58:12.287Z,56.75
2018-05-17T05:59:17.655Z,58.53
2018-05-17T06:00:23.036Z,59.92
2018-05-17T06:01:28.417Z,58.47
2018-05-17T06:02:33.806Z,58.35
2018-05-17T06:03:39.254Z,62.70
2018-05-17T06:04:44.643Z,66.90
2018-05-17T06:05:50.082Z,60.03
2018-05-17T06:06:55.512Z,54.78
2018-05-17T06:08:00.973Z,72.72
2018-05-17T06:09:06.483Z,55.80
2018-05-17T06:10:12.272Z,58.40
2018-05-17T06:11:17.730Z,64.40
2018-05-17T06:12:23.180Z,66.57
2018-05-17T06:13:28.603Z,66.75
2018-05-17T06:14:33.978Z,71.40
2018-05-17T06:15:39.362Z,67.72
2018-05-17T06:16:45.167Z,66.55
2018-05-17T06:17:50.598Z,68.70
2018-05-17T06:18:56.058Z,66.82
2018-05-17T06:20:01.427Z,67.03
2018-05-17T06:21:07.289Z,79.28
2018-05-17T06:22:12.679Z,71.93
2018-05-17T06:23:18.122Z,79.28
2018-05-17T06:24:23.489Z,84.40
2018-05-17T06:25:28.939Z,81.18
2018-05-17T06:26:34.351Z,78.55
2018-05-17T06:27:39.713Z,71.60
2018-05-17T06:28:45.546Z,74.25
2018-05-17T06:29:50.943Z,82.90
2018-05-17T06:30:56.347Z,74.87
2018-05-17T06:32:01.758Z,75.20
2018-05-17T06:33:07.433Z,73.57
2018-05-17T06:34:12.936Z,72.75
2018-05-17T06:35:18.348Z,78.75
2018-05-17T06:36:23.718Z,77.57
2018-05-17T06:37:29.132Z,89.68
2018-05-17T06:38:34.555Z,72.50
2018-05-17T06:39:40.154Z,85.87
2018-05-17T06:40:45.542Z,78.93
2018-05-17T06:41:50.929Z,80.87
2018-05-17T06:42:56.294Z,78.45
2018-05-17T06:44:01.767Z,81.10
2018-05-17T06:45:07.170Z,76.30
2018-05-17T06:46:12.582Z,91.07
2018-05-17T06:48:02.792Z,85.25
2018-05-17T06:49:08.180Z,75.20
2018-05-17T06:50:13.677Z,77.60
2018-05-17T06:51:19.110Z,82.97
2018-05-17T06:52:24.486Z,79.65
2018-05-17T06:53:29.976Z,82.70
2018-05-17T06:54:35.518Z,78.43
2018-05-17T06:55:41.314Z,74.40
2018-05-17T06:56:46.741Z,82.10
2018-05-17T06:57:52.138Z,83.03
2018-05-17T06:58:57.506Z,79.18
2018-05-17T07:00:02.959Z,81.55
2018-05-17T07:01:08.472Z,74.65
2018-05-17T07:02:13.826Z,84.57
2018-05-17T07:03:19.213Z,75.53
2018-05-17T07:04:24.762Z,71.55
2018-05-17T07:05:30.222Z,70.55
2018-05-17T07:06:35.622Z,69.15
2018-05-17T07:07:41.033Z,79.40
2018-05-17T07:08:46.408Z,64.50
2018-05-17T07:09:51.969Z,86.43
2018-05-17T07:10:57.413Z,78.82
2018-05-17T07:12:02.852Z,65.78
2018-05-17T07:13:08.271Z,65.07
2018-05-17T07:14:13.747Z,67.93
2018-05-17T07:15:19.149Z,67.75
2018-05-17T07:16:24.539Z,67.32
2018-05-17T07:17:29.913Z,66.47
2018-05-17T07:18:35.368Z,74.72
2018-05-17T07:19:40.737Z,69.60
2018-05-17T07:20:46.140Z,72.20
2018-05-17T07:21:51.585Z,62.27
2018-05-17T07:22:57.080Z,63.13
2018-05-17T07:24:02.529Z,77.90
2018-05-17T07:25:08.371Z,69.93
2018-05-17T07:26:13.763Z,79.10
2018-05-17T07:27:19.165Z,68.20
2018-05-17T07:28:24.638Z,73.72
2018-05-17T07:29:30.022Z,71.15
2018-05-17T07:30:35.461Z,80.10
2018-05-17T07:31:40.839Z,75.20
2018-05-17T07:32:46.272Z,73.55
2018-05-17T07:33:51.665Z,76.30
2018-05-17T07:34:57.235Z,77.25
2018-05-17T07:36:02.977Z,65.55
2018-05-17T07:37:08.343Z,71.32
2018-05-17T07:38:13.741Z,80.38
2018-05-17T07:39:19.134Z,72.32
2018-05-17T07:40:24.700Z,77.95
2018-05-17T07:41:30.029Z,71.85
2018-05-17T07:42:35.487Z,81.60
2018-05-17T07:43:40.817Z,80.50
2018-05-17T07:44:46.135Z,83.15
2018-05-17T07:45:51.501Z,81.33
2018-05-17T07:46:57.128Z,86.57
2018-05-17T07:48:02.470Z,79.87
2018-05-17T07:49:07.772Z,79.90
2018-05-17T07:50:13.247Z,79.80
2018-05-17T07:51:18.784Z,83.82
2018-05-17T07:52:24.387Z,85.15
2018-05-17T07:53:29.733Z,78.40
2018-05-17T07:54:35.133Z,81.28
2018-05-17T07:55:40.553Z,77.50
2018-05-17T07:56:45.999Z,85.53
2018-05-17T07:57:51.353Z,73.72
2018-05-17T07:58:56.738Z,76.20
2018-05-17T08:00:02.070Z,76.78
2018-05-17T08:01:07.477Z,78.57
2018-05-17T08:02:12.912Z,79.62
2018-05-17T08:03:18.526Z,75.93
2018-05-17T08:04:23.850Z,74.93
2018-05-17T08:05:29.160Z,71.68
2018-05-17T08:06:34.580Z,74.50
2018-05-17T08:07:40.029Z,74.18
2018-05-17T08:08:45.397Z,75.15
2018-05-17T08:09:50.775Z,70.17
2018-05-17T08:10:56.112Z,79.10
2018-05-17T08:12:01.606Z,72.65
2018-05-17T08:13:07.046Z,84.80
2018-05-17T08:14:12.389Z,76.78
2018-05-17T08:15:17.726Z,65.35
2018-05-17T08:16:23.139Z,78.68
2018-05-17T08:17:28.542Z,68.80
2018-05-17T08:18:33.884Z,73.43
2018-05-17T08:19:39.183Z,71.60
2018-05-17T08:20:44.851Z,71.90
2018-05-17T08:21:50.496Z,68.75
2018-05-17T08:22:55.885Z,73.28
2018-05-17T08:24:01.212Z,73.10
2018-05-17T08:25:06.522Z,68.78
2018-05-17T08:26:11.831Z,63.60
2018-05-17T08:27:17.363Z,59.50
2018-05-17T08:28:22.694Z,60.05
2018-05-17T08:29:27.998Z,59.20
2018-05-17T08:30:33.353Z,63.40
2018-05-17T08:31:39.393Z,58.00
2018-05-17T08:32:44.758Z,66.28
2018-05-17T08:33:50.133Z,57.57
2018-05-17T08:34:55.506Z,63.10
2018-05-17T08:36:00.996Z,64.00
2018-05-17T08:37:06.522Z,61.28
2018-05-17T08:38:11.972Z,58.03
2018-05-17T08:39:17.377Z,66.55
2018-05-17T08:40:22.758Z,60.85
2018-05-17T08:41:28.286Z,52.92
2018-05-17T08:42:34.043Z,61.75
2018-05-17T08:43:39.451Z,63.15
2018-05-17T08:44:44.841Z,67.07
2018-05-17T08:45:50.274Z,62.45
2018-05-17T08:46:55.693Z,59.75
2018-05-17T08:48:01.731Z,52.67
2018-05-17T08:49:07.152Z,55.85
2018-05-17T08:50:12.547Z,51.37
2018-05-17T08:51:17.959Z,56.15
2018-05-17T08:52:23.403Z,58.95
2018-05-17T08:53:28.809Z,51.90
2018-05-17T08:54:34.458Z,55.57
2018-05-17T08:55:39.885Z,50.35
2018-05-17T08:56:45.449Z,56.90
2018-05-17T08:57:50.861Z,43.05
2018-05-17T08:58:56.273Z,50.75
2018-05-17T09:00:02.017Z,57.50
2018-05-17T09:01:07.459Z,48.95
2018-05-17T09:02:13.031Z,55.45
2018-05-17T09:03:18.365Z,57.08
2018-05-17T09:04:23.734Z,56.80
2018-05-17T09:05:29.131Z,55.38
2018-05-17T09:06:34.517Z,54.72
2018-05-17T09:07:39.971Z,54.40
2018-05-17T09:08:45.348Z,65.12
2018-05-17T09:09:50.792Z,58.67
2018-05-17T09:10:56.536Z,59.10
2018-05-17T09:12:01.989Z,59.97
2018-05-17T09:13:07.432Z,63.55
2018-05-17T09:14:12.853Z,60.83
2018-05-17T09:15:18.254Z,58.37
2018-05-17T09:16:23.665Z,71.82
2018-05-17T09:17:29.082Z,65.97
2018-05-17T09:18:34.489Z,59.58
2018-05-17T09:19:39.890Z,53.90
2018-05-17T09:20:45.314Z,58.63
2018-05-17T09:21:51.088Z,59.40
2018-05-17T09:22:56.491Z,60.85
2018-05-17T09:24:01.965Z,65.78
2018-05-17T09:25:07.401Z,47.03
2018-05-17T09:26:12.812Z,51.78
2018-05-17T09:27:18.269Z,58.90
2018-05-17T09:28:23.967Z,51.60
2018-05-17T09:29:29.372Z,58.37
2018-05-17T09:30:34.791Z,57.62
2018-05-17T09:31:40.340Z,44.47
2018-05-17T09:32:45.732Z,55.50
2018-05-17T09:33:51.140Z,47.53
2018-05-17T09:34:56.566Z,47.65
2018-05-17T09:36:01.983Z,48.95
2018-05-17T09:37:07.675Z,48.55
2018-05-17T09:38:13.335Z,58.50
2018-05-17T09:39:19.043Z,55.12
2018-05-17T09:40:24.487Z,54.95
2018-05-17T09:41:29.845Z,54.83
2018-05-17T09:42:35.387Z,48.17
2018-05-17T09:43:40.802Z,56.13
2018-05-17T09:44:46.239Z,55.38
2018-05-17T09:45:51.712Z,54.72
2018-05-17T09:46:57.133Z,57.90
2018-05-17T09:48:02.562Z,53.50
2018-05-17T09:49:07.973Z,66.43
2018-05-17T09:50:13.401Z,57.78
2018-05-17T09:51:18.797Z,54.55
2018-05-17T09:52:24.346Z,47.15
2018-05-17T09:53:29.731Z,61.20
2018-05-17T09:54:35.388Z,57.77
2018-05-17T09:55:41.234Z,59.40
2018-05-17T09:56:46.633Z,57.62
2018-05-17T09:57:52.093Z,46.90
2018-05-17T09:58:57.589Z,49.80
2018-05-17T10:00:03.030Z,54.75
2018-05-17T10:01:08.725Z,62.10
2018-05-17T10:02:14.232Z,52.10
2018-05-17T10:03:20.146Z,49.40
2018-05-17T10:04:25.539Z,46.10
2018-05-17T10:05:31.017Z,50.27
2018-05-17T10:06:36.746Z,50.03
2018-05-17T10:07:42.181Z,45.90
2018-05-17T10:08:47.672Z,37.75
2018-05-17T10:09:53.066Z,45.08
2018-05-17T10:10:58.486Z,44.75
2018-05-17T10:12:03.904Z,44.93
2018-05-17T10:13:09.525Z,54.65
2018-05-17T10:14:14.910Z,34.97
2018-05-17T10:15:20.336Z,39.15
2018-05-17T10:16:25.773Z,40.03
2018-05-17T10:17:31.484Z,40.63
2018-05-17T10:18:36.902Z,47.43
2018-05-17T10:19:42.325Z,49.47
2018-05-17T10:20:47.759Z,44.53
2018-05-17T10:21:53.761Z,35.67
2018-05-17T10:22:59.240Z,31.37
2018-05-17T10:24:04.982Z,42.67
2018-05-17T10:25:10.391Z,46.55
2018-05-17T10:26:15.833Z,34.78
2018-05-17T10:27:21.261Z,33.60
2018-05-17T10:28:26.768Z,41.85
2018-05-17T10:29:32.194Z,46.60
2018-05-17T10:30:37.901Z,36.10
2018-05-17T10:31:43.346Z,38.25
2018-05-17T10:32:48.749Z,44.88
2018-05-17T10:33:54.684Z,36.60
2018-05-17T10:35:00.157Z,51.80
2018-05-17T10:36:05.773Z,42.93
2018-05-17T10:37:11.255Z,34.97
2018-05-17T10:38:16.747Z,35.15
2018-05-17T10:39:22.189Z,35.15
2018-05-17T10:40:27.611Z,36.30
2018-05-17T10:41:33.055Z,34.60
2018-05-17T10:42:38.463Z,42.13
2018-05-17T10:43:43.922Z,40.08
2018-05-17T10:44:49.620Z,31.12
2018-05-17T10:45:55.098Z,35.22
2018-05-17T10:47:01.196Z,34.42
2018-05-17T10:48:06.827Z,36.35
2018-05-17T10:49:12.545Z,32.67
2018-05-17T10:50:17.995Z,36.47
2018-05-17T10:51:23.569Z,38.55
2018-05-17T10:52:28.993Z,47.55
2018-05-17T10:53:34.438Z,29.10
2018-05-17T10:54:40.034Z,38.60
2018-05-17T10:55:45.372Z,40.33
2018-05-17T10:56:51.076Z,46.57
2018-05-17T10:57:56.460Z,53.40
2018-05-17T10:59:01.941Z,56.50
2018-05-17T11:00:07.595Z,42.33
2018-05-17T11:01:13.192Z,58.72
2018-05-17T11:02:19.156Z,50.42
2018-05-17T11:03:24.630Z,41.70
2018-05-17T11:04:30.088Z,60.57
2018-05-17T11:05:35.583Z,47.78
2018-05-17T11:06:41.068Z,52.20
2018-05-17T11:07:46.511Z,32.45
2018-05-17T11:08:52.018Z,32.30
2018-05-17T11:09:57.496Z,38.83
2018-05-17T11:11:03.061Z,31.50
2018-05-17T11:12:08.786Z,28.08
2018-05-17T11:13:14.557Z,36.53
2018-05-17T11:14:20.011Z,34.47
2018-05-17T11:15:25.583Z,35.50
2018-05-17T11:16:31.056Z,27.15
2018-05-17T11:17:36.548Z,34.10
2018-05-17T11:18:42.002Z,36.70
2018-05-17T11:19:47.450Z,31.42
2018-05-17T11:20:52.896Z,29.20
2018-05-17T11:21:58.436Z,27.70
2018-05-17T11:23:03.900Z,31.10
2018-05-17T11:24:09.433Z,36.17
2018-05-17T11:25:14.908Z,41.15
2018-05-17T11:26:20.423Z,29.52
2018-05-17T11:27:25.876Z,30.37
2018-05-17T11:28:31.293Z,29.05
2018-05-17T11:29:37.016Z,37.08
2018-05-17T11:30:42.459Z,28.67
2018-05-17T11:31:47.922Z,32.83
2018-05-17T11:32:53.448Z,35.00
2018-05-17T11:33:59.224Z,34.17
2018-05-17T11:35:04.692Z,37.15
2018-05-17T11:36:10.165Z,36.45
2018-05-17T11:37:15.605Z,45.67
2018-05-17T11:38:21.056Z,70.80
2018-05-17T11:39:26.485Z,56.45
2018-05-17T11:40:31.938Z,37.30
2018-05-17T11:41:37.817Z,30.97
2018-05-17T11:42:43.248Z,52.67
2018-05-17T11:43:48.697Z,66.40
2018-05-17T11:44:54.212Z,53.72
2018-05-17T11:45:59.653Z,66.05
2018-05-17T11:47:05.242Z,34.92
2018-05-17T11:48:10.630Z,51.37
2018-05-17T11:49:16.123Z,42.22
2018-05-17T11:50:21.664Z,35.75
2018-05-17T11:51:27.391Z,39.00
2018-05-17T11:52:33.097Z,36.45
2018-05-17T11:53:38.585Z,37.00
2018-05-17T11:54:44.044Z,45.90
2018-05-17T11:55:49.441Z,34.33
2018-05-17T11:56:54.872Z,34.05
2018-05-17T11:58:00.367Z,41.33
2018-05-17T11:59:05.800Z,35.10
2018-05-17T12:00:11.256Z,39.40
2018-05-17T12:01:16.713Z,27.70
2018-05-17T12:02:22.239Z,34.50
2018-05-17T12:03:27.667Z,34.30
2018-05-17T12:04:33.079Z,41.95
2018-05-17T12:05:38.502Z,28.00
2018-05-17T12:06:43.939Z,29.02
2018-05-17T12:07:49.386Z,27.05
2018-05-17T12:08:55.135Z,29.85
2018-05-17T12:10:00.565Z,30.62
2018-05-17T12:11:06.052Z,35.03
2018-05-17T12:12:11.607Z,34.55
2018-05-17T12:13:17.025Z,29.30
2018-05-17T12:14:22.467Z,34.70
2018-05-17T12:15:27.903Z,27.70
2018-05-17T12:16:33.427Z,24.12
2018-05-17T12:17:38.802Z,32.77
2018-05-17T12:18:44.212Z,40.70
2018-05-17T12:19:50.062Z,27.42
2018-05-17T12:20:55.443Z,29.83
2018-05-17T12:22:00.931Z,25.35
2018-05-17T12:23:06.351Z,26.52
2018-05-17T12:24:13.161Z,33.95
2018-05-17T12:25:18.608Z,34.35
2018-05-17T12:26:24.061Z,36.67
2018-05-17T12:27:29.553Z,37.47
2018-05-17T12:28:35.030Z,43.60
2018-05-17T12:29:40.497Z,28.38
2018-05-17T12:30:45.933Z,32.67
2018-05-17T12:31:51.672Z,30.05
2018-05-17T12:32:57.164Z,32.03
2018-05-17T12:34:02.618Z,33.55
2018-05-17T12:35:08.252Z,25.00
2018-05-17T12:36:13.915Z,34.30
2018-05-17T12:37:19.563Z,33.97
2018-05-17T12:38:25.146Z,34.53
2018-05-17T12:39:30.983Z,33.22
2018-05-17T12:40:36.466Z,32.78
2018-05-17T12:41:41.847Z,25.75
2018-05-17T12:42:47.290Z,29.42
2018-05-17T12:43:52.658Z,29.50
2018-05-17T12:44:58.345Z,22.75
2018-05-17T12:46:03.763Z,28.38
2018-05-17T12:47:09.360Z,28.33
2018-05-17T12:48:15.260Z,30.95
2018-05-17T12:49:20.964Z,34.90
2018-05-17T12:50:26.484Z,28.05
2018-05-17T12:51:32.043Z,23.15
2018-05-17T12:52:37.771Z,26.53
2018-05-17T12:53:43.224Z,41.10
2018-05-17T12:54:48.677Z,41.00
2018-05-17T12:55:54.161Z,33.80
2018-05-17T12:56:59.617Z,33.75
2018-05-17T12:58:05.122Z,35.13
2018-05-17T12:59:10.817Z,37.45
2018-05-17T13:00:17.151Z,42.30
2018-05-17T13:01:22.603Z,48.28
2018-05-17T13:02:28.206Z,42.22
2018-05-17T13:03:33.754Z,40.50
2018-05-17T13:04:39.209Z,47.97
2018-05-17T13:05:44.749Z,39.33
2018-05-17T13:06:53.687Z,48.70
2018-05-17T13:07:59.543Z,30.15
2018-05-17T13:09:07.141Z,38.27
2018-05-17T13:10:12.704Z,31.65
2018-05-17T13:11:18.215Z,32.78
2018-05-17T13:12:23.637Z,26.25
2018-05-17T13:13:29.421Z,34.75
2018-05-17T13:14:34.887Z,30.75
2018-05-17T13:15:40.385Z,41.22
2018-05-17T13:16:45.816Z,26.87
2018-05-17T13:17:51.310Z,24.37
2018-05-17T13:18:56.851Z,29.17
2018-05-17T13:20:02.312Z,31.05
2018-05-17T13:21:07.752Z,23.15
2018-05-17T13:22:13.233Z,29.17
2018-05-17T13:23:18.815Z,31.20
2018-05-17T13:24:24.249Z,26.60
2018-05-17T13:25:29.945Z,25.73
2018-05-17T13:26:35.368Z,29.92
2018-05-17T13:27:41.072Z,28.75
2018-05-17T13:28:47.358Z,29.15
2018-05-17T13:29:53.099Z,34.80
2018-05-17T13:30:58.502Z,26.48
2018-05-17T13:32:03.936Z,24.35
2018-05-17T13:33:09.368Z,36.90
2018-05-17T13:34:14.887Z,28.58
2018-05-17T13:35:20.334Z,30.40
2018-05-17T13:36:25.833Z,23.62
2018-05-17T13:37:31.358Z,28.85
2018-05-17T13:38:36.774Z,29.05
2018-05-17T13:39:42.290Z,30.02
2018-05-17T13:40:47.729Z,25.27
2018-05-17T13:41:53.150Z,30.58
2018-05-17T13:42:58.634Z,26.17
2018-05-17T13:44:04.085Z,22.87
2018-05-17T13:45:09.629Z,25.23
2018-05-17T13:46:15.075Z,24.37
2018-05-17T13:47:20.515Z,29.20
2018-05-17T13:48:25.934Z,31.37
2018-05-17T13:49:33.224Z,62.22
2018-05-17T13:50:41.340Z,28.02
2018-05-17T13:51:47.426Z,36.53
2018-05-17T13:53:02.249Z,51.50
2018-05-17T13:54:08.268Z,41.53
2018-05-17T13:55:22.162Z,38.70
2018-05-17T13:56:43.362Z,36.90
2018-05-17T13:57:57.207Z,40.88
2018-05-17T13:59:04.863Z,58.53
2018-05-17T14:00:12.733Z,59.13
2018-05-17T14:01:33.230Z,72.87
2018-05-17T14:02:49.457Z,32.72
2018-05-17T14:03:55.907Z,43.40
2018-05-17T14:05:02.363Z,38.13
2018-05-17T14:06:08.772Z,39.80
2018-05-17T14:07:15.302Z,36.55
2018-05-17T14:08:21.477Z,49.63
2018-05-17T14:09:27.810Z,45.03